createdAt,value
2023-01-11T00:01:07.798Z,94447.38
2023-01-11T00:03:34.406Z,94444.59
2023-01-11T00:06:00.899Z,94438.41
2023-01-11T00:08:28.229Z,94440.19
2023-01-11T00:10:55.353Z,94433.56
2023-01-11T00:13:21.790Z,94431.50
2023-01-11T00:15:48.293Z,94433.88
2023-01-11T00:18:14.784Z,94441.88
2023-01-11T00:20:41.944Z,94443.19
2023-01-11T00:23:08.783Z,94440.38
2023-01-11T00:25:35.939Z,94441.16
2023-01-11T00:28:02.808Z,94432.66
2023-01-11T00:30:29.217Z,94435.22
2023-01-11T00:32:59.858Z,94439.13
2023-01-11T00:35:27.498Z,94432.72
2023-01-11T00:37:54.378Z,94423.19
2023-01-11T00:40:21.411Z,94419.56
2023-01-11T00:43:06.573Z,94419.34
2023-01-11T00:45:51.420Z,94410.59
2023-01-11T00:48:17.868Z,94408.03
2023-01-11T00:50:44.259Z,94409.03
2023-01-11T00:53:10.786Z,94421.41
2023-01-11T00:55:37.498Z,94420.84
2023-01-11T00:58:04.324Z,94416.16
2023-01-11T01:00:31.250Z,94398.38
2023-01-11T01:02:58.126Z,94412.28
2023-01-11T01:05:24.677Z,94410.47
2023-01-11T01:07:51.210Z,94398.88
2023-01-11T01:10:18.456Z,94394.50
2023-01-11T01:13:04.229Z,94399.13
2023-01-11T01:15:31.778Z,94384.69
2023-01-11T01:17:58.439Z,94384.69
2023-01-11T01:20:25.432Z,94387.25
2023-01-11T01:22:52.403Z,94391.38
2023-01-11T01:25:19.162Z,94396.06
2023-01-11T01:27:45.588Z,94406.13
2023-01-11T01:30:12.729Z,94394.50
2023-01-11T01:32:39.307Z,94387.31
2023-01-11T01:35:06.198Z,94389.88
2023-01-11T01:37:32.658Z,94397.13
2023-01-11T01:39:59.115Z,94392.50
2023-01-11T01:42:25.553Z,94390.47
2023-01-11T01:44:58.455Z,94388.97
2023-01-11T01:47:51.928Z,94393.69
2023-01-11T01:50:29.422Z,94382.34
2023-01-11T01:53:01.490Z,94383.72
2023-01-11T01:55:35.685Z,94381.66
2023-01-11T01:58:07.283Z,94376.28
2023-01-11T02:00:33.889Z,94369.06
2023-01-11T02:03:01.744Z,94364.22
2023-01-11T02:05:28.389Z,94362.94
2023-01-11T02:07:57.417Z,94357.31
2023-01-11T02:10:23.891Z,94351.91
2023-01-11T02:12:58.279Z,94348.59
2023-01-11T02:15:25.287Z,94335.94
2023-01-11T02:17:51.752Z,94333.13
2023-01-11T02:20:44.731Z,94345.06
2023-01-11T02:23:29.149Z,94336.81
2023-01-11T02:26:12.846Z,94329.63
2023-01-11T02:29:06.847Z,94326.56
2023-01-11T02:32:04.040Z,94320.91
2023-01-11T02:34:44.043Z,94317.81
2023-01-11T02:37:34.689Z,94311.66
2023-01-11T02:40:10.313Z,94306.53
2023-01-11T02:43:09.406Z,94306.50
2023-01-11T02:45:43.248Z,94320.19
2023-01-11T02:48:14.713Z,94322.00
2023-01-11T02:51:04.546Z,94317.63
2023-01-11T02:53:38.441Z,94328.72
2023-01-11T02:56:13.454Z,94316.84
2023-01-11T02:58:43.496Z,94319.41
2023-01-11T03:01:10.982Z,94307.56
2023-01-11T03:03:37.438Z,94319.94
2023-01-11T03:06:13.716Z,94308.88
2023-01-11T03:08:46.078Z,94307.31
2023-01-11T03:11:42.377Z,94311.22
2023-01-11T03:14:55.689Z,94307.34
2023-01-11T03:17:37.357Z,94308.41
2023-01-11T03:20:12.569Z,94306.06
2023-01-11T03:22:53.157Z,94305.34
2023-01-11T03:25:30.196Z,94307.94
2023-01-11T03:28:07.060Z,94306.13
2023-01-11T03:30:40.220Z,94296.81
2023-01-11T03:33:13.316Z,94295.25
2023-01-11T03:35:47.988Z,94287.53
2023-01-11T03:38:27.751Z,94284.94
2023-01-11T03:41:01.299Z,94281.59
2023-01-11T03:43:29.107Z,94285.19
2023-01-11T03:46:09.105Z,94276.69
2023-01-11T03:48:48.230Z,94275.66
2023-01-11T03:51:19.237Z,94275.66
2023-01-11T03:53:49.221Z,94282.91
2023-01-11T03:56:19.189Z,94276.97
2023-01-11T03:58:45.657Z,94279.28
2023-01-11T04:01:13.044Z,94273.59
2023-01-11T04:03:39.523Z,94280.84
2023-01-11T04:06:06.226Z,94278.00
2023-01-11T04:08:32.698Z,94279.31
2023-01-11T04:10:59.368Z,94283.97
2023-01-11T04:13:25.819Z,94275.22
2023-01-11T04:15:54.114Z,94275.72
2023-01-11T04:18:20.535Z,94277.28
2023-01-11T04:20:47.027Z,94277.81
2023-01-11T04:23:14.987Z,94267.75
2023-01-11T04:25:41.443Z,94270.09
2023-01-11T04:28:07.861Z,94271.16
2023-01-11T04:30:35.904Z,94257.19
2023-01-11T04:33:02.362Z,94261.84
2023-01-11T04:35:28.767Z,94270.16
2023-01-11T04:37:56.331Z,94270.41
2023-01-11T04:40:24.202Z,94265.22
2023-01-11T04:42:50.628Z,94265.22
2023-01-11T04:45:17.138Z,94259.28
2023-01-11T04:47:43.586Z,94256.47
2023-01-11T04:50:11.769Z,94260.84
2023-01-11T04:52:40.507Z,94258.53
2023-01-11T04:55:07.683Z,94251.53
2023-01-11T04:57:34.073Z,94240.47
2023-01-11T05:00:00.540Z,94244.59
2023-01-11T05:02:26.934Z,94253.63
2023-01-11T05:04:53.332Z,94249.75
2023-01-11T05:07:19.793Z,94257.00
2023-01-11T05:09:46.225Z,94258.84
2023-01-11T05:12:12.626Z,94257.56
2023-01-11T05:14:39.032Z,94257.81
2023-01-11T05:17:05.464Z,94251.88
2023-01-11T05:19:31.916Z,94245.16
2023-01-11T05:21:58.506Z,94244.66
2023-01-11T05:24:24.976Z,94235.63
2023-01-11T05:26:52.593Z,94228.41
2023-01-11T05:29:21.059Z,94232.28
2023-01-11T05:31:48.365Z,94229.97
2023-01-11T05:34:16.127Z,94226.34
2023-01-11T05:36:43.318Z,94217.59
2023-01-11T05:39:11.825Z,94221.97
2023-01-11T05:41:38.823Z,94216.81
2023-01-11T05:44:24.240Z,94196.91
2023-01-11T05:46:50.701Z,94189.69
2023-01-11T05:49:17.315Z,94193.28
2023-01-11T05:51:43.863Z,94196.38
2023-01-11T05:54:13.522Z,94195.63
2023-01-11T05:56:42.333Z,94176.22
2023-01-11T05:59:09.153Z,94197.16
2023-01-11T06:01:35.745Z,94205.19
2023-01-11T06:04:02.213Z,94197.66
2023-01-11T06:06:28.686Z,94202.06
2023-01-11T06:08:55.191Z,94200.75
2023-01-11T06:11:21.656Z,94202.56
2023-01-11T06:13:48.088Z,94203.09
2023-01-11T06:16:17.383Z,94197.38
2023-01-11T06:18:49.227Z,94190.16
2023-01-11T06:21:16.519Z,94191.72
2023-01-11T06:23:46.193Z,94188.06
2023-01-11T06:26:15.326Z,94199.69
2023-01-11T06:28:42.543Z,94200.47
2023-01-11T06:31:09.368Z,94192.97
2023-01-11T06:33:36.674Z,94196.31
2023-01-11T06:36:06.283Z,94197.88
2023-01-11T06:38:33.026Z,94198.38
2023-01-11T06:41:01.410Z,94204.03
2023-01-11T06:43:28.884Z,94207.63
2023-01-11T06:45:55.653Z,94204.03
2023-01-11T06:48:23.759Z,94212.56
2023-01-11T06:50:52.200Z,94218.75
2023-01-11T06:53:18.975Z,94209.44
2023-01-11T06:55:45.424Z,94225.69
2023-01-11T06:58:11.906Z,94219.75
2023-01-11T07:00:38.554Z,94222.09
2023-01-11T07:03:06.251Z,94231.13
2023-01-11T07:05:34.523Z,94222.34
2023-01-11T07:08:01.489Z,94222.34
2023-01-11T07:10:28.481Z,94218.47
2023-01-11T07:12:54.998Z,94219.03
2023-01-11T07:15:22.102Z,94217.22
2023-01-11T07:17:54.038Z,94211.78
2023-01-11T07:20:20.521Z,94207.13
2023-01-11T07:22:46.922Z,94207.41
2023-01-11T07:25:13.365Z,94214.59
2023-01-11T07:27:39.796Z,94207.13
2023-01-11T07:30:08.427Z,94206.84
2023-01-11T07:32:36.101Z,94214.84
2023-01-11T07:35:02.593Z,94218.97
2023-01-11T07:37:32.523Z,94209.69
2023-01-11T07:39:59.079Z,94215.38
2023-01-11T07:42:43.972Z,94216.66
2023-01-11T07:45:10.950Z,94208.91
2023-01-11T07:47:37.380Z,94203.47
2023-01-11T07:50:04.146Z,94209.69
2023-01-11T07:52:30.567Z,94203.97
2023-01-11T07:55:02.271Z,94194.66
2023-01-11T07:57:30.230Z,94203.47
2023-01-11T07:59:56.681Z,94207.56
2023-01-11T08:02:23.242Z,94200.09
2023-01-11T08:04:50.336Z,94194.16
2023-01-11T08:07:16.809Z,94205.25
2023-01-11T08:09:43.214Z,94206.53
2023-01-11T08:12:28.388Z,94203.94
2023-01-11T08:14:55.039Z,94202.38
2023-01-11T08:17:21.537Z,94211.41
2023-01-11T08:19:48.004Z,94210.41
2023-01-11T08:22:14.420Z,94211.47
2023-01-11T08:24:40.871Z,94223.59
2023-01-11T08:27:07.406Z,94219.50
2023-01-11T08:29:33.881Z,94209.47
2023-01-11T08:32:00.636Z,94221.63
2023-01-11T08:34:30.291Z,94211.81
2023-01-11T08:36:57.497Z,94214.44
2023-01-11T08:39:24.838Z,94204.63
2023-01-11T08:41:51.327Z,94212.91
2023-01-11T08:44:29.033Z,94210.63
2023-01-11T08:46:59.627Z,94213.72
2023-01-11T08:49:26.097Z,94218.09
2023-01-11T08:51:52.580Z,94217.63
2023-01-11T08:54:19.006Z,94219.69
2023-01-11T08:56:45.436Z,94220.22
2023-01-11T08:59:12.029Z,94210.13
2023-01-11T09:01:38.504Z,94204.19
2023-01-11T09:04:15.576Z,94206.78
2023-01-11T09:06:49.765Z,94204.69
2023-01-11T09:09:16.918Z,94203.94
2023-01-11T09:11:56.574Z,94205.97
2023-01-11T09:14:25.320Z,94202.09
2023-01-11T09:16:52.991Z,94203.63
2023-01-11T09:19:19.743Z,94210.34
2023-01-11T09:21:46.579Z,94214.44
2023-01-11T09:24:13.590Z,94215.50
2023-01-11T09:26:41.521Z,94220.66
2023-01-11T09:29:08.393Z,94224.03
2023-01-11T09:31:35.001Z,94217.03
2023-01-11T09:34:01.657Z,94223.19
2023-01-11T09:36:28.955Z,94221.38
2023-01-11T09:38:57.755Z,94214.91
2023-01-11T09:41:50.811Z,94218.25
2023-01-11T09:44:23.109Z,94214.09
2023-01-11T09:46:56.061Z,94207.09
2023-01-11T09:49:28.073Z,94209.66
2023-01-11T09:52:23.763Z,94207.03
2023-01-11T09:54:51.184Z,94201.84
2023-01-11T09:57:23.825Z,94190.41
2023-01-11T10:00:00.766Z,94193.50
2023-01-11T10:02:59.114Z,94181.03
2023-01-11T10:05:29.800Z,94169.84
2023-01-11T10:14:01.319Z,94170.59
2023-01-11T10:18:38.533Z,94168.00
2023-01-11T10:20:05.701Z,94156.31
2023-01-11T10:22:40.959Z,94156.25
2023-01-11T10:25:26.628Z,94148.16
2023-01-11T10:28:01.556Z,94149.66
2023-01-11T10:31:06.724Z,94143.94
2023-01-11T10:34:06.823Z,94144.38
2023-01-11T10:37:23.856Z,94134.19
2023-01-11T10:40:19.075Z,94130.75
2023-01-11T10:42:52.249Z,94127.63
2023-01-11T10:45:23.693Z,94138.25
2023-01-11T10:48:05.596Z,94129.94
2023-01-11T10:50:53.951Z,94127.31
2023-01-11T10:53:32.544Z,94140.78
2023-01-11T10:56:21.507Z,94141.56
2023-01-11T10:59:15.586Z,94145.69
2023-01-11T11:01:54.610Z,94143.13
2023-01-11T11:04:27.219Z,94154.56
2023-01-11T11:07:05.450Z,94138.50
2023-01-11T11:09:50.264Z,94142.41
2023-01-11T11:12:25.850Z,94131.25
2023-01-11T11:15:07.937Z,94133.59
2023-01-11T11:17:36.861Z,94126.84
2023-01-11T11:20:20.928Z,94129.69
2023-01-11T11:22:52.317Z,94116.41
2023-01-11T11:25:27.275Z,94125.75
2023-01-11T11:28:04.390Z,94126.00
2023-01-11T11:30:41.494Z,94122.34
2023-01-11T11:33:20.005Z,94121.31
2023-01-11T11:35:56.634Z,94118.72
2023-01-11T11:38:26.173Z,94110.63
2023-01-11T11:41:08.233Z,94106.22
2023-01-11T11:43:39.650Z,94111.16
2023-01-11T11:46:19.557Z,94096.88
2023-01-11T11:49:11.174Z,94099.94
2023-01-11T11:51:38.891Z,94105.63
2023-01-11T11:54:05.479Z,94092.66
2023-01-11T11:56:41.671Z,94095.78
2023-01-11T11:59:13.852Z,94085.38
2023-01-11T12:01:47.247Z,94077.59
2023-01-11T12:04:24.081Z,94080.22
2023-01-11T12:07:06.743Z,94078.66
2023-01-11T12:09:35.111Z,94067.50
2023-01-11T12:12:02.686Z,94076.06
2023-01-11T12:14:32.326Z,94063.59
2023-01-11T12:16:59.308Z,94060.00
2023-01-11T12:19:45.250Z,94070.59
2023-01-11T12:22:17.334Z,94059.44
2023-01-11T12:24:45.749Z,94068.78
2023-01-11T12:27:35.760Z,94065.41
2023-01-11T12:30:11.312Z,94062.56
2023-01-11T12:32:59.631Z,94061.25
2023-01-11T12:35:46.929Z,94062.00
2023-01-11T12:38:42.268Z,94056.81
2023-01-11T12:41:43.957Z,94058.34
2023-01-11T12:44:14.486Z,94062.50
2023-01-11T12:46:43.686Z,94057.81
2023-01-11T12:49:21.054Z,94062.44
2023-01-11T12:52:12.848Z,94059.59
2023-01-11T12:54:54.252Z,94065.53
2023-01-11T12:57:26.654Z,94057.75
2023-01-11T12:59:59.155Z,94053.63
2023-01-11T13:02:52.050Z,94048.44
2023-01-11T13:05:26.655Z,94056.69
2023-01-11T13:08:04.485Z,94046.31
2023-01-11T13:10:42.224Z,94050.72
2023-01-11T13:13:31.902Z,94058.50
2023-01-11T13:16:10.546Z,94052.06
2023-01-11T13:18:46.027Z,94046.88
2023-01-11T13:21:31.957Z,94053.06
2023-01-11T13:24:27.541Z,94056.16
2023-01-11T13:27:00.365Z,94055.66
2023-01-11T13:29:31.303Z,94060.34
2023-01-11T13:32:01.277Z,94064.22
2023-01-11T13:35:09.235Z,94062.38
2023-01-11T13:37:47.203Z,94069.19
2023-01-11T13:40:26.127Z,94065.03
2023-01-11T13:43:16.032Z,94064.53
2023-01-11T13:45:55.208Z,94063.53
2023-01-11T13:48:41.049Z,94064.31
2023-01-11T13:51:33.210Z,94063.81
2023-01-11T13:54:11.813Z,94070.06
2023-01-11T13:56:42.899Z,94066.97
2023-01-11T13:59:16.683Z,94070.88
2023-01-11T14:01:59.993Z,94080.22
2023-01-11T14:04:45.322Z,94071.47
2023-01-11T14:07:30.539Z,94081.06
2023-01-11T14:10:08.435Z,94080.28
2023-01-11T14:12:38.180Z,94084.44
2023-01-11T14:15:12.955Z,94081.06
2023-01-11T14:18:05.752Z,94084.44
2023-01-11T14:20:46.999Z,94091.44
2023-01-11T14:23:17.063Z,94086.03
2023-01-11T14:25:46.157Z,94095.84
2023-01-11T14:28:40.009Z,94108.34
2023-01-11T14:31:32.298Z,94110.69
2023-01-11T14:34:10.922Z,94117.69
2023-01-11T14:37:00.473Z,94107.59
2023-01-11T14:39:39.120Z,94124.44
2023-01-11T14:42:31.274Z,94123.91
2023-01-11T14:45:43.135Z,94130.13
2023-01-11T14:48:27.218Z,94131.97
2023-01-11T14:51:33.290Z,94130.13
2023-01-11T14:54:11.910Z,94129.09
2023-01-11T14:56:44.445Z,94129.09
2023-01-11T14:59:32.834Z,94133.72
2023-01-11T15:02:05.472Z,94133.19
2023-01-11T15:04:32.941Z,94129.53
2023-01-11T15:07:00.643Z,94135.72
2023-01-11T15:09:43.424Z,94145.59
2023-01-11T15:12:27.917Z,94153.06
2023-01-11T15:15:01.378Z,94150.22
2023-01-11T15:17:47.802Z,94155.63
2023-01-11T15:20:17.852Z,94149.88
2023-01-11T15:22:45.847Z,94153.75
2023-01-11T15:25:23.413Z,94176.06
2023-01-11T15:27:51.323Z,94168.56
2023-01-11T15:30:29.936Z,94176.84
2023-01-11T15:33:18.019Z,94178.16
2023-01-11T15:36:11.640Z,94178.41
2023-01-11T15:38:56.543Z,94192.72
2023-01-11T15:42:01.382Z,94181.34
2023-01-11T15:45:17.501Z,94188.63
2023-01-11T15:48:13.072Z,94207.84
2023-01-11T15:51:07.515Z,94207.31
2023-01-11T15:53:56.360Z,94204.50
2023-01-11T15:56:44.749Z,94218.72
2023-01-11T15:59:25.875Z,94223.44
2023-01-11T16:02:29.177Z,94219.78
2023-01-11T16:04:59.154Z,94226.03
2023-01-11T16:07:42.019Z,94229.66
2023-01-11T16:10:27.755Z,94240.81
2023-01-11T16:13:06.217Z,94240.31
2023-01-11T16:15:48.154Z,94247.31
2023-01-11T16:18:34.420Z,94264.69
2023-01-11T16:21:07.243Z,94274.28
2023-01-11T16:23:34.216Z,94275.34
2023-01-11T16:26:01.734Z,94266.00
2023-01-11T16:28:28.965Z,94268.09
2023-01-11T16:31:01.036Z,94274.88
2023-01-11T16:33:30.134Z,94265.03
2023-01-11T16:36:09.886Z,94287.34
2023-01-11T16:38:43.372Z,94293.06
2023-01-11T16:41:13.547Z,94289.97
2023-01-11T16:43:47.894Z,94294.91
2023-01-11T16:46:49.992Z,94302.44
2023-01-11T16:49:18.002Z,94308.19
2023-01-11T16:51:45.390Z,94307.19
2023-01-11T16:54:26.124Z,94310.56
2023-01-11T16:56:53.689Z,94307.75
2023-01-11T16:59:26.405Z,94314.25
2023-01-11T17:01:56.578Z,94321.81
2023-01-11T17:04:29.536Z,94315.34
2023-01-11T17:07:28.895Z,94325.97
2023-01-11T17:10:32.225Z,94343.59
2023-01-11T17:13:52.128Z,94327.56
2023-01-11T17:16:20.548Z,94336.88
2023-01-11T17:18:47.219Z,94321.88
2023-01-11T17:21:22.383Z,94333.78
2023-01-11T17:23:50.480Z,94341.03
2023-01-11T17:26:25.784Z,94328.34
2023-01-11T17:28:58.839Z,94340.53
2023-01-11T17:31:30.888Z,94339.75
2023-01-11T17:34:02.046Z,94351.16
2023-01-11T17:36:29.573Z,94338.47
2023-01-11T17:38:57.996Z,94346.78
2023-01-11T17:41:45.748Z,94350.91
2023-01-11T17:44:37.502Z,94335.13
2023-01-11T17:47:07.319Z,94354.81
2023-01-11T17:49:36.553Z,94362.31
2023-01-11T17:52:34.334Z,94348.88
2023-01-11T17:55:17.930Z,94378.41
2023-01-11T17:57:44.667Z,94377.63
2023-01-11T18:00:26.130Z,94378.41
2023-01-11T18:02:53.410Z,94366.22
2023-01-11T18:05:24.513Z,94384.09
2023-01-11T18:07:56.761Z,94386.47
2023-01-11T18:10:27.127Z,94382.03
2023-01-11T18:12:56.145Z,94387.22
2023-01-11T18:15:30.938Z,94382.31
2023-01-11T18:17:57.881Z,94400.16
2023-01-11T18:20:24.317Z,94396.03
2023-01-11T18:22:53.531Z,94399.41
2023-01-11T18:25:28.889Z,94396.28
2023-01-11T18:28:28.127Z,94397.34
2023-01-11T18:30:59.093Z,94402.78
2023-01-11T18:33:29.239Z,94405.38
2023-01-11T18:35:59.671Z,94410.81
2023-01-11T18:38:31.421Z,94398.38
2023-01-11T18:41:20.302Z,94419.09
2023-01-11T18:43:46.746Z,94411.59
2023-01-11T18:46:13.193Z,94416.25
2023-01-11T18:48:39.628Z,94403.28
2023-01-11T18:51:06.301Z,94402.28
2023-01-11T18:53:32.729Z,94400.19
2023-01-11T18:55:59.104Z,94403.31
2023-01-11T18:58:25.506Z,94418.84
2023-01-11T19:00:51.905Z,94416.78
2023-01-11T19:03:18.360Z,94425.03
2023-01-11T19:05:44.820Z,94412.38
2023-01-11T19:08:11.277Z,94418.84
2023-01-11T19:10:37.686Z,94415.97
2023-01-11T19:13:04.119Z,94418.84
2023-01-11T19:15:30.629Z,94420.88
2023-01-11T19:17:57.175Z,94430.22
2023-01-11T19:20:23.594Z,94431.00
2023-01-11T19:22:50.054Z,94430.72
2023-01-11T19:25:16.553Z,94451.44
2023-01-11T19:27:43.154Z,94440.34
2023-01-11T19:30:10.446Z,94437.47
2023-01-11T19:32:37.189Z,94448.84
2023-01-11T19:35:04.010Z,94444.47
2023-01-11T19:37:30.541Z,94448.34
2023-01-11T19:39:57.048Z,94450.44
2023-01-11T19:42:23.865Z,94446.56
2023-01-11T19:44:51.331Z,94452.25
2023-01-11T19:47:17.786Z,94446.81
2023-01-11T19:49:44.369Z,94439.56
2023-01-11T19:52:13.746Z,94461.84
2023-01-11T19:54:42.243Z,94456.38
2023-01-11T19:57:14.184Z,94442.41
2023-01-11T19:59:40.911Z,94451.22
2023-01-11T20:02:07.784Z,94447.84
2023-01-11T20:04:34.469Z,94448.63
2023-01-11T20:07:00.899Z,94443.97
2023-01-11T20:09:27.325Z,94454.06
2023-01-11T20:11:55.366Z,94447.84
2023-01-11T20:14:22.013Z,94463.91
2023-01-11T20:16:48.454Z,94448.88
2023-01-11T20:19:14.925Z,94449.94
2023-01-11T20:21:41.502Z,94461.81
2023-01-11T20:24:10.109Z,94461.31
2023-01-11T20:26:36.599Z,94475.81
2023-01-11T20:29:05.421Z,94474.78
2023-01-11T20:31:35.044Z,94481.00
2023-01-11T20:34:07.508Z,94484.09
2023-01-11T20:36:33.993Z,94493.16
2023-01-11T20:39:00.547Z,94498.59
2023-01-11T20:41:46.351Z,94494.44
2023-01-11T20:44:20.243Z,94508.19
2023-01-11T20:46:48.225Z,94504.28
2023-01-11T20:49:15.819Z,94501.16
2023-01-11T20:51:43.151Z,94504.81
2023-01-11T20:54:10.069Z,94517.75
2023-01-11T20:56:38.340Z,94523.94
2023-01-11T20:59:07.392Z,94528.09
2023-01-11T21:01:34.549Z,94523.94
2023-01-11T21:04:09.693Z,94528.84
2023-01-11T21:06:39.467Z,94535.88
2023-01-11T21:09:07.589Z,94531.72
2023-01-11T21:11:34.784Z,94524.47
2023-01-11T21:14:04.062Z,94547.75
2023-01-11T21:16:31.379Z,94526.03
2023-01-11T21:19:03.335Z,94526.53
2023-01-11T21:21:32.266Z,94535.59
2023-01-11T21:24:03.492Z,94525.97
2023-01-11T21:26:31.173Z,94535.81
2023-01-11T21:28:59.777Z,94531.16
2023-01-11T21:31:28.196Z,94532.44
2023-01-11T21:33:54.976Z,94531.66
2023-01-11T21:36:23.688Z,94539.94
2023-01-11T21:38:50.800Z,94546.16
2023-01-11T21:41:42.926Z,94551.84
2023-01-11T21:44:10.911Z,94540.16
2023-01-11T21:46:37.998Z,94541.47
2023-01-11T21:49:04.555Z,94549.75
2023-01-11T21:51:31.607Z,94551.25
2023-01-11T21:53:59.300Z,94547.63
2023-01-11T21:56:26.382Z,94538.31
2023-01-11T21:58:52.871Z,94537.28
2023-01-11T22:01:21.310Z,94539.59
2023-01-11T22:03:48.596Z,94546.06
2023-01-11T22:06:16.220Z,94542.16
2023-01-11T22:08:45.005Z,94547.59
2023-01-11T22:11:13.710Z,94559.47
2023-01-11T22:13:40.146Z,94571.34
2023-01-11T22:16:12.099Z,94579.38
2023-01-11T22:18:40.547Z,94585.31
2023-01-11T22:21:18.232Z,94582.19
2023-01-11T22:23:46.232Z,94584.50
2023-01-11T22:26:15.239Z,94582.94
2023-01-11T22:29:00.845Z,94587.81
2023-01-11T22:31:28.850Z,94581.63
2023-01-11T22:33:56.049Z,94601.53
2023-01-11T22:36:23.691Z,94602.31
2023-01-11T22:38:50.317Z,94595.81
2023-01-11T22:41:16.796Z,94605.66
2023-01-11T22:43:43.833Z,94581.84
2023-01-11T22:46:16.176Z,94591.44
2023-01-11T22:48:43.765Z,94581.59
2023-01-11T22:51:11.664Z,94568.66
2023-01-11T22:53:39.511Z,94577.69
2023-01-11T22:56:07.012Z,94575.34
2023-01-11T22:58:34.946Z,94587.75
2023-01-11T23:01:12.486Z,94585.63
2023-01-11T23:03:40.203Z,94594.19
2023-01-11T23:06:07.784Z,94586.66
2023-01-11T23:08:42.216Z,94594.91
2023-01-11T23:11:10.263Z,94604.94
2023-01-11T23:13:58.792Z,94611.38
2023-01-11T23:16:25.219Z,94607.47
2023-01-11T23:18:51.647Z,94604.13
2023-01-11T23:21:18.136Z,94594.53
2023-01-11T23:23:44.545Z,94607.69
2023-01-11T23:26:17.871Z,94595.53
2023-01-11T23:28:45.423Z,94599.63
2023-01-11T23:31:17.819Z,94594.16
2023-01-11T23:33:46.067Z,94593.13
2023-01-11T23:36:13.853Z,94581.69
2023-01-11T23:38:40.387Z,94579.91
2023-01-11T23:41:27.108Z,94573.44
2023-01-11T23:43:53.638Z,94573.13
2023-01-11T23:46:39.159Z,94573.63
2023-01-11T23:49:07.133Z,94561.44
2023-01-11T23:51:34.378Z,94571.50
2023-01-11T23:54:01.906Z,94570.44
2023-01-11T23:56:29.567Z,94576.63
2023-01-11T23:58:57.033Z,94571.16
